sensor_id;sensor_type;location;lat;lon;timestamp;P1;durP1;ratioP1;P2;durP2;ratioP2
69280;SDS011;56392;51.082;17.080;2024-02-16T00:03:54;30.30;;;13.13;;
69280;SDS011;56392;51.082;17.080;2024-02-16T00:09:19;29.45;;;12.43;;
69280;SDS011;56392;51.082;17.080;2024-02-16T00:14:43;26.75;;;11.90;;
69280;SDS011;56392;51.082;17.080;2024-02-16T00:20:10;27.87;;;12.07;;
69280;SDS011;56392;51.082;17.080;2024-02-16T00:25:36;25.55;;;10.85;;
69280;SDS011;56392;51.082;17.080;2024-02-16T00:31:02;24.27;;;10.80;;
69280;SDS011;56392;51.082;17.080;2024-02-16T00:36:28;27.30;;;11.20;;
69280;SDS011;56392;51.082;17.080;2024-02-16T00:41:53;28.02;;;12.15;;
69280;SDS011;56392;51.082;17.080;2024-02-16T00:47:18;28.95;;;12.43;;
69280;SDS011;56392;51.082;17.080;2024-02-16T00:52:41;30.13;;;13.07;;
69280;SDS011;56392;51.082;17.080;2024-02-16T00:58:08;30.13;;;12.90;;
69280;SDS011;56392;51.082;17.080;2024-02-16T01:03:31;31.15;;;13.88;;
69280;SDS011;56392;51.082;17.080;2024-02-16T01:08:54;33.70;;;13.70;;
69280;SDS011;56392;51.082;17.080;2024-02-16T01:14:20;32.23;;;14.63;;
69280;SDS011;56392;51.082;17.080;2024-02-16T01:19:43;31.65;;;14.93;;
69280;SDS011;56392;51.082;17.080;2024-02-16T01:25:08;30.27;;;14.05;;
69280;SDS011;56392;51.082;17.080;2024-02-16T01:30:32;34.30;;;15.20;;
69280;SDS011;56392;51.082;17.080;2024-02-16T01:35:56;31.10;;;14.93;;
69280;SDS011;56392;51.082;17.080;2024-02-16T01:41:19;31.15;;;14.90;;
69280;SDS011;56392;51.082;17.080;2024-02-16T01:46:44;32.57;;;15.27;;
69280;SDS011;56392;51.082;17.080;2024-02-16T01:52:07;34.23;;;14.53;;
69280;SDS011;56392;51.082;17.080;2024-02-16T01:57:30;34.83;;;15.35;;
69280;SDS011;56392;51.082;17.080;2024-02-16T02:02:57;34.78;;;16.35;;
69280;SDS011;56392;51.082;17.080;2024-02-16T02:08:20;32.27;;;14.70;;
69280;SDS011;56392;51.082;17.080;2024-02-16T02:13:43;39.92;;;16.63;;
69280;SDS011;56392;51.082;17.080;2024-02-16T02:19:08;35.22;;;15.38;;
69280;SDS011;56392;51.082;17.080;2024-02-16T02:24:33;33.13;;;14.33;;
69280;SDS011;56392;51.082;17.080;2024-02-16T02:29:56;35.10;;;15.48;;
69280;SDS011;56392;51.082;17.080;2024-02-16T02:35:21;35.95;;;14.77;;
69280;SDS011;56392;51.082;17.080;2024-02-16T02:40:45;29.40;;;14.57;;
69280;SDS011;56392;51.082;17.080;2024-02-16T02:46:09;30.77;;;15.17;;
69280;SDS011;56392;51.082;17.080;2024-02-16T02:51:33;34.75;;;16.05;;
69280;SDS011;56392;51.082;17.080;2024-02-16T02:56:57;36.65;;;16.52;;
69280;SDS011;56392;51.082;17.080;2024-02-16T03:02:21;34.40;;;15.87;;
69280;SDS011;56392;51.082;17.080;2024-02-16T03:07:45;34.50;;;15.23;;
69280;SDS011;56392;51.082;17.080;2024-02-16T03:13:11;39.33;;;17.55;;
69280;SDS011;56392;51.082;17.080;2024-02-16T03:18:35;37.43;;;17.30;;
69280;SDS011;56392;51.082;17.080;2024-02-16T03:23:59;38.47;;;16.90;;
69280;SDS011;56392;51.082;17.080;2024-02-16T03:29:25;38.70;;;17.60;;
69280;SDS011;56392;51.082;17.080;2024-02-16T03:34:48;36.07;;;16.83;;
69280;SDS011;56392;51.082;17.080;2024-02-16T03:40:12;38.77;;;17.90;;
69280;SDS011;56392;51.082;17.080;2024-02-16T03:45:37;40.03;;;17.90;;
69280;SDS011;56392;51.082;17.080;2024-02-16T03:51:03;38.95;;;18.48;;
69280;SDS011;56392;51.082;17.080;2024-02-16T03:56:27;39.93;;;17.17;;
69280;SDS011;56392;51.082;17.080;2024-02-16T04:01:53;37.17;;;17.15;;
69280;SDS011;56392;51.082;17.080;2024-02-16T04:07:16;37.95;;;17.48;;
69280;SDS011;56392;51.082;17.080;2024-02-16T04:12:40;38.27;;;18.80;;
69280;SDS011;56392;51.082;17.080;2024-02-16T04:18:05;40.03;;;18.02;;
69280;SDS011;56392;51.082;17.080;2024-02-16T04:23:29;39.88;;;18.77;;
69280;SDS011;56392;51.082;17.080;2024-02-16T04:28:52;47.33;;;22.00;;
69280;SDS011;56392;51.082;17.080;2024-02-16T04:34:17;46.00;;;21.47;;
69280;SDS011;56392;51.082;17.080;2024-02-16T04:39:40;46.35;;;21.08;;
69280;SDS011;56392;51.082;17.080;2024-02-16T04:45:06;47.35;;;21.42;;
69280;SDS011;56392;51.082;17.080;2024-02-16T04:50:32;44.93;;;22.40;;
69280;SDS011;56392;51.082;17.080;2024-02-16T04:55:55;46.45;;;22.90;;
69280;SDS011;56392;51.082;17.080;2024-02-16T05:01:18;46.97;;;21.10;;
69280;SDS011;56392;51.082;17.080;2024-02-16T05:06:43;44.90;;;20.80;;
69280;SDS011;56392;51.082;17.080;2024-02-16T05:12:07;41.58;;;19.75;;
69280;SDS011;56392;51.082;17.080;2024-02-16T05:17:31;44.45;;;21.08;;
69280;SDS011;56392;51.082;17.080;2024-02-16T05:22:56;43.30;;;20.57;;
69280;SDS011;56392;51.082;17.080;2024-02-16T05:28:19;42.07;;;19.27;;
69280;SDS011;56392;51.082;17.080;2024-02-16T05:33:45;39.80;;;18.42;;
69280;SDS011;56392;51.082;17.080;2024-02-16T05:39:11;43.22;;;19.92;;
69280;SDS011;56392;51.082;17.080;2024-02-16T05:44:47;43.40;;;19.13;;
69280;SDS011;56392;51.082;17.080;2024-02-16T05:50:11;42.67;;;19.88;;
69280;SDS011;56392;51.082;17.080;2024-02-16T05:55:36;39.63;;;17.65;;
69280;SDS011;56392;51.082;17.080;2024-02-16T06:00:59;40.27;;;19.00;;
69280;SDS011;56392;51.082;17.080;2024-02-16T06:06:23;43.40;;;19.67;;
69280;SDS011;56392;51.082;17.080;2024-02-16T06:11:47;40.70;;;18.80;;
69280;SDS011;56392;51.082;17.080;2024-02-16T06:17:11;39.57;;;18.27;;
69280;SDS011;56392;51.082;17.080;2024-02-16T06:22:37;40.13;;;18.17;;
69280;SDS011;56392;51.082;17.080;2024-02-16T06:28:02;33.88;;;16.58;;
69280;SDS011;56392;51.082;17.080;2024-02-16T06:33:26;32.78;;;15.75;;
69280;SDS011;56392;51.082;17.080;2024-02-16T06:38:49;30.57;;;14.37;;
69280;SDS011;56392;51.082;17.080;2024-02-16T06:44:14;32.67;;;13.93;;
69280;SDS011;56392;51.082;17.080;2024-02-16T06:49:38;31.50;;;13.40;;
69280;SDS011;56392;51.082;17.080;2024-02-16T06:55:01;32.00;;;13.27;;
69280;SDS011;56392;51.082;17.080;2024-02-16T07:00:26;24.05;;;11.25;;
69280;SDS011;56392;51.082;17.080;2024-02-16T07:05:50;22.90;;;10.80;;
69280;SDS011;56392;51.082;17.080;2024-02-16T07:11:13;25.23;;;10.93;;
69280;SDS011;56392;51.082;17.080;2024-02-16T07:16:38;24.07;;;10.73;;
69280;SDS011;56392;51.082;17.080;2024-02-16T07:22:02;24.80;;;10.73;;
69280;SDS011;56392;51.082;17.080;2024-02-16T07:27:28;24.83;;;10.48;;
69280;SDS011;56392;51.082;17.080;2024-02-16T07:32:53;20.30;;;9.90;;
69280;SDS011;56392;51.082;17.080;2024-02-16T07:38:16;24.88;;;10.60;;
69280;SDS011;56392;51.082;17.080;2024-02-16T07:43:39;19.75;;;9.18;;
69280;SDS011;56392;51.082;17.080;2024-02-16T07:49:06;19.53;;;8.67;;
69280;SDS011;56392;51.082;17.080;2024-02-16T07:54:32;21.17;;;9.02;;
69280;SDS011;56392;51.082;17.080;2024-02-16T07:59:55;18.60;;;7.93;;
69280;SDS011;56392;51.082;17.080;2024-02-16T08:05:20;20.03;;;8.87;;
69280;SDS011;56392;51.082;17.080;2024-02-16T08:10:45;20.13;;;8.23;;
69280;SDS011;56392;51.082;17.080;2024-02-16T08:16:08;17.20;;;7.85;;
69280;SDS011;56392;51.082;17.080;2024-02-16T08:21:36;17.02;;;7.80;;
69280;SDS011;56392;51.082;17.080;2024-02-16T08:26:59;18.57;;;7.30;;
69280;SDS011;56392;51.082;17.080;2024-02-16T08:32:24;18.70;;;8.85;;
69280;SDS011;56392;51.082;17.080;2024-02-16T08:37:49;16.00;;;6.80;;
69280;SDS011;56392;51.082;17.080;2024-02-16T08:43:12;16.70;;;7.47;;
69280;SDS011;56392;51.082;17.080;2024-02-16T08:48:35;14.52;;;6.80;;
69280;SDS011;56392;51.082;17.080;2024-02-16T08:54:00;15.48;;;6.65;;
69280;SDS011;56392;51.082;17.080;2024-02-16T08:59:23;15.90;;;6.23;;
69280;SDS011;56392;51.082;17.080;2024-02-16T09:04:46;16.40;;;6.60;;
69280;SDS011;56392;51.082;17.080;2024-02-16T09:10:11;13.93;;;6.88;;
69280;SDS011;56392;51.082;17.080;2024-02-16T09:15:35;14.43;;;6.95;;
69280;SDS011;56392;51.082;17.080;2024-02-16T09:20:59;13.13;;;5.90;;
69280;SDS011;56392;51.082;17.080;2024-02-16T09:26:24;12.65;;;5.93;;
69280;SDS011;56392;51.082;17.080;2024-02-16T09:31:51;13.38;;;6.32;;
69280;SDS011;56392;51.082;17.080;2024-02-16T09:37:14;16.20;;;6.50;;
69280;SDS011;56392;51.082;17.080;2024-02-16T09:42:39;13.80;;;6.18;;
69280;SDS011;56392;51.082;17.080;2024-02-16T09:48:05;14.68;;;6.55;;
69280;SDS011;56392;51.082;17.080;2024-02-16T09:53:31;16.40;;;7.03;;
69280;SDS011;56392;51.082;17.080;2024-02-16T09:58:55;17.50;;;6.47;;
69280;SDS011;56392;51.082;17.080;2024-02-16T10:04:18;13.95;;;6.75;;
69280;SDS011;56392;51.082;17.080;2024-02-16T10:09:42;12.52;;;6.03;;
69280;SDS011;56392;51.082;17.080;2024-02-16T10:15:07;14.90;;;6.90;;
69280;SDS011;56392;51.082;17.080;2024-02-16T10:20:31;14.65;;;6.55;;
69280;SDS011;56392;51.082;17.080;2024-02-16T10:25:55;13.27;;;6.07;;
69280;SDS011;56392;51.082;17.080;2024-02-16T10:31:21;14.13;;;5.73;;
69280;SDS011;56392;51.082;17.080;2024-02-16T10:36:49;12.98;;;6.40;;
69280;SDS011;56392;51.082;17.080;2024-02-16T10:42:14;14.45;;;6.50;;
69280;SDS011;56392;51.082;17.080;2024-02-16T10:47:38;13.47;;;6.33;;
69280;SDS011;56392;51.082;17.080;2024-02-16T10:53:04;15.80;;;5.37;;
69280;SDS011;56392;51.082;17.080;2024-02-16T10:58:31;17.00;;;4.07;;
69280;SDS011;56392;51.082;17.080;2024-02-16T11:04:02;8.55;;;3.10;;
69280;SDS011;56392;51.082;17.080;2024-02-16T11:09:30;7.60;;;2.97;;
69280;SDS011;56392;51.082;17.080;2024-02-16T11:15:01;9.35;;;2.83;;
69280;SDS011;56392;51.082;17.080;2024-02-16T11:20:26;7.43;;;2.83;;
69280;SDS011;56392;51.082;17.080;2024-02-16T11:25:49;8.10;;;2.80;;
69280;SDS011;56392;51.082;17.080;2024-02-16T11:31:13;9.57;;;2.88;;
69280;SDS011;56392;51.082;17.080;2024-02-16T11:36:39;7.13;;;2.65;;
69280;SDS011;56392;51.082;17.080;2024-02-16T11:42:04;12.83;;;6.10;;
69280;SDS011;56392;51.082;17.080;2024-02-16T11:47:28;14.93;;;6.20;;
69280;SDS011;56392;51.082;17.080;2024-02-16T11:52:52;14.18;;;6.32;;
69280;SDS011;56392;51.082;17.080;2024-02-16T11:58:18;13.45;;;5.65;;
69280;SDS011;56392;51.082;17.080;2024-02-16T12:03:42;8.17;;;3.13;;
69280;SDS011;56392;51.082;17.080;2024-02-16T12:09:07;7.97;;;2.78;;
69280;SDS011;56392;51.082;17.080;2024-02-16T12:14:30;10.98;;;2.90;;
69280;SDS011;56392;51.082;17.080;2024-02-16T12:19:55;9.63;;;2.80;;
69280;SDS011;56392;51.082;17.080;2024-02-16T12:25:19;6.82;;;2.80;;
69280;SDS011;56392;51.082;17.080;2024-02-16T12:30:42;6.97;;;2.90;;
69280;SDS011;56392;51.082;17.080;2024-02-16T12:36:06;6.40;;;2.47;;
69280;SDS011;56392;51.082;17.080;2024-02-16T12:41:31;8.47;;;3.10;;
69280;SDS011;56392;51.082;17.080;2024-02-16T12:46:54;8.38;;;2.65;;
69280;SDS011;56392;51.082;17.080;2024-02-16T12:52:19;6.78;;;2.40;;
69280;SDS011;56392;51.082;17.080;2024-02-16T12:57:45;7.90;;;2.40;;
69280;SDS011;56392;51.082;17.080;2024-02-16T13:03:08;8.55;;;2.80;;
69280;SDS011;56392;51.082;17.080;2024-02-16T13:08:32;7.40;;;2.67;;
69280;SDS011;56392;51.082;17.080;2024-02-16T13:13:58;8.27;;;2.80;;
69280;SDS011;56392;51.082;17.080;2024-02-16T13:19:22;8.43;;;2.90;;
69280;SDS011;56392;51.082;17.080;2024-02-16T13:24:50;10.52;;;3.22;;
69280;SDS011;56392;51.082;17.080;2024-02-16T13:30:15;9.40;;;2.80;;
69280;SDS011;56392;51.082;17.080;2024-02-16T13:35:39;9.67;;;3.37;;
69280;SDS011;56392;51.082;17.080;2024-02-16T13:41:02;10.10;;;3.13;;
69280;SDS011;56392;51.082;17.080;2024-02-16T13:46:27;10.13;;;3.47;;
69280;SDS011;56392;51.082;17.080;2024-02-16T13:51:50;10.83;;;4.10;;
69280;SDS011;56392;51.082;17.080;2024-02-16T13:57:17;8.32;;;3.20;;
69280;SDS011;56392;51.082;17.080;2024-02-16T14:02:41;10.10;;;3.33;;
69280;SDS011;56392;51.082;17.080;2024-02-16T14:08:05;10.73;;;3.00;;
69280;SDS011;56392;51.082;17.080;2024-02-16T14:13:30;10.10;;;3.90;;
69280;SDS011;56392;51.082;17.080;2024-02-16T14:18:55;11.77;;;3.67;;
69280;SDS011;56392;51.082;17.080;2024-02-16T14:24:18;9.47;;;3.40;;
69280;SDS011;56392;51.082;17.080;2024-02-16T14:29:42;10.80;;;3.60;;
69280;SDS011;56392;51.082;17.080;2024-02-16T14:35:07;11.27;;;4.03;;
69280;SDS011;56392;51.082;17.080;2024-02-16T14:40:31;9.90;;;3.70;;
69280;SDS011;56392;51.082;17.080;2024-02-16T14:45:54;9.90;;;3.50;;
69280;SDS011;56392;51.082;17.080;2024-02-16T14:51:21;9.43;;;4.00;;
69280;SDS011;56392;51.082;17.080;2024-02-16T14:56:44;11.57;;;3.70;;
69280;SDS011;56392;51.082;17.080;2024-02-16T15:02:08;9.17;;;3.50;;
69280;SDS011;56392;51.082;17.080;2024-02-16T15:07:32;12.32;;;4.05;;
69280;SDS011;56392;51.082;17.080;2024-02-16T15:12:58;13.68;;;5.32;;
69280;SDS011;56392;51.082;17.080;2024-02-16T15:18:22;11.97;;;4.27;;
69280;SDS011;56392;51.082;17.080;2024-02-16T15:23:46;10.20;;;3.83;;
69280;SDS011;56392;51.082;17.080;2024-02-16T15:29:13;10.00;;;4.10;;
69280;SDS011;56392;51.082;17.080;2024-02-16T15:34:38;10.45;;;4.20;;
69280;SDS011;56392;51.082;17.080;2024-02-16T15:40:07;9.70;;;3.80;;
69280;SDS011;56392;51.082;17.080;2024-02-16T15:45:31;12.50;;;4.30;;
69280;SDS011;56392;51.082;17.080;2024-02-16T15:50:57;12.57;;;4.25;;
69280;SDS011;56392;51.082;17.080;2024-02-16T15:56:22;12.07;;;4.67;;
69280;SDS011;56392;51.082;17.080;2024-02-16T16:01:48;14.15;;;5.38;;
69280;SDS011;56392;51.082;17.080;2024-02-16T16:07:12;18.27;;;6.07;;
69280;SDS011;56392;51.082;17.080;2024-02-16T16:12:38;14.33;;;5.47;;
69280;SDS011;56392;51.082;17.080;2024-02-16T16:18:03;14.07;;;5.23;;
69280;SDS011;56392;51.082;17.080;2024-02-16T16:23:26;15.10;;;5.97;;
69280;SDS011;56392;51.082;17.080;2024-02-16T16:28:51;13.77;;;5.25;;
69280;SDS011;56392;51.082;17.080;2024-02-16T16:34:14;11.97;;;4.97;;
69280;SDS011;56392;51.082;17.080;2024-02-16T16:39:38;13.07;;;4.97;;
69280;SDS011;56392;51.082;17.080;2024-02-16T16:45:03;14.52;;;5.28;;
69280;SDS011;56392;51.082;17.080;2024-02-16T16:50:27;15.50;;;6.03;;
69280;SDS011;56392;51.082;17.080;2024-02-16T16:55:50;13.45;;;5.93;;
69280;SDS011;56392;51.082;17.080;2024-02-16T17:01:14;18.65;;;7.20;;
69280;SDS011;56392;51.082;17.080;2024-02-16T17:06:38;16.50;;;7.10;;
69280;SDS011;56392;51.082;17.080;2024-02-16T17:12:01;16.00;;;7.10;;
69280;SDS011;56392;51.082;17.080;2024-02-16T17:17:27;20.80;;;7.20;;
69280;SDS011;56392;51.082;17.080;2024-02-16T17:22:53;16.45;;;7.30;;
69280;SDS011;56392;51.082;17.080;2024-02-16T17:28:16;14.37;;;6.43;;
69280;SDS011;56392;51.082;17.080;2024-02-16T17:33:40;16.83;;;6.93;;
69280;SDS011;56392;51.082;17.080;2024-02-16T17:39:04;14.93;;;5.63;;
69280;SDS011;56392;51.082;17.080;2024-02-16T17:44:27;14.10;;;6.10;;
69280;SDS011;56392;51.082;17.080;2024-02-16T17:49:52;15.20;;;6.82;;
69280;SDS011;56392;51.082;17.080;2024-02-16T17:55:15;16.13;;;6.55;;
69280;SDS011;56392;51.082;17.080;2024-02-16T18:00:38;13.53;;;5.93;;
69280;SDS011;56392;51.082;17.080;2024-02-16T18:06:03;14.53;;;5.60;;
69280;SDS011;56392;51.082;17.080;2024-02-16T18:11:26;13.23;;;5.47;;
69280;SDS011;56392;51.082;17.080;2024-02-16T18:16:49;12.18;;;5.22;;
69280;SDS011;56392;51.082;17.080;2024-02-16T18:22:14;15.80;;;5.70;;
69280;SDS011;56392;51.082;17.080;2024-02-16T18:27:37;14.57;;;5.90;;
69280;SDS011;56392;51.082;17.080;2024-02-16T18:33:00;13.55;;;5.97;;
69280;SDS011;56392;51.082;17.080;2024-02-16T18:38:25;14.87;;;6.43;;
69280;SDS011;56392;51.082;17.080;2024-02-16T18:43:48;14.40;;;5.90;;
69280;SDS011;56392;51.082;17.080;2024-02-16T18:49:11;15.32;;;6.70;;
69280;SDS011;56392;51.082;17.080;2024-02-16T18:54:36;18.63;;;6.77;;
69280;SDS011;56392;51.082;17.080;2024-02-16T18:59:59;14.87;;;7.07;;
69280;SDS011;56392;51.082;17.080;2024-02-16T19:05:24;15.98;;;6.30;;
69280;SDS011;56392;51.082;17.080;2024-02-16T19:10:51;16.10;;;6.40;;
69280;SDS011;56392;51.082;17.080;2024-02-16T19:16:16;13.70;;;5.97;;
69280;SDS011;56392;51.082;17.080;2024-02-16T19:21:39;12.15;;;5.43;;
69280;SDS011;56392;51.082;17.080;2024-02-16T19:27:06;13.75;;;5.88;;
69280;SDS011;56392;51.082;17.080;2024-02-16T19:32:29;13.93;;;6.50;;
69280;SDS011;56392;51.082;17.080;2024-02-16T19:37:52;16.75;;;6.40;;
69280;SDS011;56392;51.082;17.080;2024-02-16T19:43:17;14.95;;;6.38;;
69280;SDS011;56392;51.082;17.080;2024-02-16T19:48:41;15.83;;;5.90;;
69280;SDS011;56392;51.082;17.080;2024-02-16T19:54:04;15.63;;;6.67;;
69280;SDS011;56392;51.082;17.080;2024-02-16T19:59:29;20.10;;;7.18;;
69280;SDS011;56392;51.082;17.080;2024-02-16T20:04:53;16.67;;;6.25;;
69280;SDS011;56392;51.082;17.080;2024-02-16T20:10:16;14.97;;;6.20;;
69280;SDS011;56392;51.082;17.080;2024-02-16T20:15:43;16.45;;;6.65;;
69280;SDS011;56392;51.082;17.080;2024-02-16T20:21:13;16.40;;;7.82;;
69280;SDS011;56392;51.082;17.080;2024-02-16T20:26:37;17.73;;;7.80;;
69280;SDS011;56392;51.082;17.080;2024-02-16T20:32:04;15.68;;;6.68;;
69280;SDS011;56392;51.082;17.080;2024-02-16T20:37:27;14.75;;;6.30;;
69280;SDS011;56392;51.082;17.080;2024-02-16T20:42:51;17.47;;;6.90;;
69280;SDS011;56392;51.082;17.080;2024-02-16T20:48:15;15.23;;;6.83;;
69280;SDS011;56392;51.082;17.080;2024-02-16T20:53:39;15.90;;;7.63;;
69280;SDS011;56392;51.082;17.080;2024-02-16T20:59:02;16.85;;;7.35;;
69280;SDS011;56392;51.082;17.080;2024-02-16T21:04:33;18.67;;;7.67;;
69280;SDS011;56392;51.082;17.080;2024-02-16T21:09:57;14.68;;;7.38;;
69280;SDS011;56392;51.082;17.080;2024-02-16T21:15:25;17.88;;;8.10;;
69280;SDS011;56392;51.082;17.080;2024-02-16T21:20:51;21.07;;;7.97;;
69280;SDS011;56392;51.082;17.080;2024-02-16T21:26:15;21.83;;;7.57;;
69280;SDS011;56392;51.082;17.080;2024-02-16T21:31:38;18.30;;;8.25;;
69280;SDS011;56392;51.082;17.080;2024-02-16T21:37:03;18.83;;;7.77;;
69280;SDS011;56392;51.082;17.080;2024-02-16T21:42:26;15.70;;;7.00;;
69280;SDS011;56392;51.082;17.080;2024-02-16T21:47:49;19.55;;;7.20;;
69280;SDS011;56392;51.082;17.080;2024-02-16T21:53:15;16.50;;;6.60;;
69280;SDS011;56392;51.082;17.080;2024-02-16T21:58:38;17.47;;;6.27;;
69280;SDS011;56392;51.082;17.080;2024-02-16T22:04:04;13.40;;;6.13;;
69280;SDS011;56392;51.082;17.080;2024-02-16T22:09:28;16.60;;;6.00;;
69280;SDS011;56392;51.082;17.080;2024-02-16T22:14:51;14.87;;;5.97;;
69280;SDS011;56392;51.082;17.080;2024-02-16T22:20:14;16.70;;;5.90;;
69280;SDS011;56392;51.082;17.080;2024-02-16T22:25:39;16.40;;;6.18;;
69280;SDS011;56392;51.082;17.080;2024-02-16T22:31:02;18.63;;;6.47;;
69280;SDS011;56392;51.082;17.080;2024-02-16T22:36:26;17.10;;;6.17;;
69280;SDS011;56392;51.082;17.080;2024-02-16T22:41:51;14.20;;;6.28;;
69280;SDS011;56392;51.082;17.080;2024-02-16T22:47:14;14.60;;;5.72;;
69280;SDS011;56392;51.082;17.080;2024-02-16T22:52:38;14.10;;;5.67;;
69280;SDS011;56392;51.082;17.080;2024-02-16T22:58:04;15.95;;;6.22;;
69280;SDS011;56392;51.082;17.080;2024-02-16T23:03:30;14.45;;;5.80;;
69280;SDS011;56392;51.082;17.080;2024-02-16T23:08:53;15.93;;;6.53;;
69280;SDS011;56392;51.082;17.080;2024-02-16T23:14:18;18.55;;;6.97;;
69280;SDS011;56392;51.082;17.080;2024-02-16T23:19:41;15.25;;;7.05;;
69280;SDS011;56392;51.082;17.080;2024-02-16T23:25:08;15.67;;;6.57;;
69280;SDS011;56392;51.082;17.080;2024-02-16T23:30:33;15.20;;;7.20;;
69280;SDS011;56392;51.082;17.080;2024-02-16T23:35:56;18.10;;;8.35;;
69280;SDS011;56392;51.082;17.080;2024-02-16T23:41:22;21.25;;;9.30;;
69280;SDS011;56392;51.082;17.080;2024-02-16T23:46:47;20.30;;;8.73;;
69280;SDS011;56392;51.082;17.080;2024-02-16T23:52:10;21.33;;;9.20;;
69280;SDS011;56392;51.082;17.080;2024-02-16T23:57:33;24.02;;;10.32;;
